Time;durP1;ratioP1;P1;durP2;ratioP2;P2;SDS_P1;SDS_P2;PMS_P1;PMS_P2;Temp;Humidity;BMP_temperature;BMP_pressure;BME280_temperature;BME280_humidity;BME280_pressure;Samples;Min_cycle;Max_cycle;Signal;HPM_P1;HPM_P2
2023/01/27 00:00:01;;;;;;;1.9;1.9;;;;;;;4.7;100.0;102240;;;;
2023/01/27 00:01:00;;;;;;;1.9;1.9;;;;;;;4.7;100.0;102230;;;;
2023/01/27 00:02:00;;;;;;;1.9;1.9;;;;;;;4.7;100.0;102230;;;;
2023/01/27 00:03:00;;;;;;;1.9;1.9;;;;;;;4.6;100.0;102230;;;;
2023/01/27 00:04:00;;;;;;;1.9;1.9;;;;;;;4.6;100.0;102230;;;;
2023/01/27 00:05:00;;;;;;;1.9;1.9;;;;;;;4.7;100.0;102230;;;;
2023/01/27 00:06:00;;;;;;;1.9;1.9;;;;;;;4.7;100.0;102230;;;;
2023/01/27 00:07:00;;;;;;;1.7;1.7;;;;;;;4.7;100.0;102230;;;;
2023/01/27 00:08:00;;;;;;;1.7;1.7;;;;;;;4.7;100.0;102230;;;;
2023/01/27 00:09:00;;;;;;;1.7;1.7;;;;;;;4.7;100.0;102230;;;;
2023/01/27 00:10:00;;;;;;;1.7;1.7;;;;;;;4.7;100.0;102230;;;;
2023/01/27 00:14:00;;;;;;;1.7;1.7;;;;;;;4.8;100.0;102220;;;;
2023/01/27 00:15:00;;;;;;;1.7;1.7;;;;;;;4.7;100.0;102220;;;;
2023/01/27 00:16:00;;;;;;;1.7;1.7;;;;;;;4.7;100.0;102220;;;;
2023/01/27 00:17:00;;;;;;;1.7;1.7;;;;;;;4.7;100.0;102230;;;;
2023/01/27 00:18:00;;;;;;;1.7;1.7;;;;;;;4.7;100.0;102230;;;;
2023/01/27 00:19:00;;;;;;;1.7;1.7;;;;;;;4.6;100.0;102230;;;;
2023/01/27 00:20:04;;;;;;;1.7;1.7;;;;;;;4.6;100.0;102230;;;;
2023/01/27 00:25:00;;;;;;;1.7;1.7;;;;;;;4.7;100.0;102240;;;;
2023/01/27 00:26:05;;;;;;;1.9;1.9;;;;;;;4.7;100.0;102240;;;;
2023/01/27 00:27:00;;;;;;;1.9;1.9;;;;;;;4.7;100.0;102240;;;;
2023/01/27 00:28:04;;;;;;;1.9;1.9;;;;;;;4.7;100.0;102240;;;;
2023/01/27 00:29:00;;;;;;;1.9;1.9;;;;;;;4.6;100.0;102240;;;;
2023/01/27 00:30:03;;;;;;;1.9;1.9;;;;;;;4.6;100.0;102240;;;;
2023/01/27 00:31:00;;;;;;;1.9;1.9;;;;;;;4.5;100.0;102240;;;;
2023/01/27 00:34:00;;;;;;;1.9;1.9;;;;;;;4.6;100.0;102240;;;;
2023/01/27 00:35:00;;;;;;;1.9;1.9;;;;;;;4.5;100.0;102240;;;;
2023/01/27 00:36:01;;;;;;;1.9;1.9;;;;;;;4.5;100.0;102240;;;;
2023/01/27 00:37:00;;;;;;;1.9;1.9;;;;;;;4.5;100.0;102240;;;;
2023/01/27 00:38:00;;;;;;;1.9;1.9;;;;;;;4.5;100.0;102240;;;;
2023/01/27 00:39:00;;;;;;;1.9;1.9;;;;;;;4.4;100.0;102240;;;;
2023/01/27 00:40:00;;;;;;;1.9;1.9;;;;;;;4.4;100.0;102240;;;;
2023/01/27 00:42:00;;;;;;;1.9;1.9;;;;;;;4.4;100.0;102230;;;;
2023/01/27 00:43:00;;;;;;;1.9;1.9;;;;;;;4.5;100.0;102230;;;;
2023/01/27 00:44:00;;;;;;;1.9;1.9;;;;;;;4.5;100.0;102230;;;;
2023/01/27 00:46:00;;;;;;;2.1;2.1;;;;;;;4.5;100.0;102240;;;;
2023/01/27 00:47:00;;;;;;;2.1;2.1;;;;;;;4.5;100.0;102240;;;;
2023/01/27 00:48:00;;;;;;;2.1;2.1;;;;;;;4.5;100.0;102240;;;;
2023/01/27 00:49:00;;;;;;;2.1;2.1;;;;;;;4.4;100.0;102240;;;;
2023/01/27 00:50:00;;;;;;;2.1;2.1;;;;;;;4.4;100.0;102240;;;;
2023/01/27 00:51:00;;;;;;;2.1;2.1;;;;;;;4.4;100.0;102250;;;;
2023/01/27 00:52:00;;;;;;;2.1;2.1;;;;;;;4.4;100.0;102250;;;;
2023/01/27 00:53:01;;;;;;;2.1;2.1;;;;;;;4.4;100.0;102250;;;;
2023/01/27 00:54:01;;;;;;;2.1;2.1;;;;;;;4.4;100.0;102250;;;;
2023/01/27 00:55:00;;;;;;;2.1;2.1;;;;;;;4.3;100.0;102250;;;;
2023/01/27 00:56:00;;;;;;;2.1;2.1;;;;;;;4.3;100.0;102250;;;;
2023/01/27 00:57:00;;;;;;;2.1;2.1;;;;;;;4.2;100.0;102240;;;;
2023/01/27 00:58:00;;;;;;;2.1;2.1;;;;;;;4.2;100.0;102240;;;;
2023/01/27 00:59:00;;;;;;;2.1;2.1;;;;;;;4.2;100.0;102250;;;;
2023/01/27 01:00:00;;;;;;;2.1;2.1;;;;;;;4.2;100.0;102250;;;;
2023/01/27 01:01:01;;;;;;;2.1;2.1;;;;;;;4.2;100.0;102250;;;;
2023/01/27 01:02:00;;;;;;;2.1;2.1;;;;;;;4.2;100.0;102250;;;;
2023/01/27 01:03:00;;;;;;;2.1;2.1;;;;;;;4.2;100.0;102250;;;;
2023/01/27 01:04:00;;;;;;;2.1;2.1;;;;;;;4.2;100.0;102250;;;;
2023/01/27 01:05:00;;;;;;;2.1;2.1;;;;;;;4.2;100.0;102250;;;;
2023/01/27 01:06:01;;;;;;;2.2;2.2;;;;;;;4.2;100.0;102250;;;;
2023/01/27 01:07:00;;;;;;;2.2;2.2;;;;;;;4.2;100.0;102250;;;;
2023/01/27 01:08:00;;;;;;;2.2;2.2;;;;;;;4.2;100.0;102250;;;;
2023/01/27 01:09:00;;;;;;;2.2;2.2;;;;;;;4.2;100.0;102250;;;;
2023/01/27 01:10:00;;;;;;;2.2;2.2;;;;;;;4.2;100.0;102250;;;;
2023/01/27 01:11:00;;;;;;;2.2;2.2;;;;;;;4.2;100.0;102250;;;;
2023/01/27 01:12:00;;;;;;;2.2;2.2;;;;;;;4.2;100.0;102250;;;;
2023/01/27 01:13:00;;;;;;;2.2;2.2;;;;;;;4.2;100.0;102250;;;;
2023/01/27 01:14:00;;;;;;;2.2;2.2;;;;;;;4.2;100.0;102250;;;;
2023/01/27 01:15:00;;;;;;;2.2;2.2;;;;;;;4.2;100.0;102250;;;;
2023/01/27 01:16:05;;;;;;;2.2;2.2;;;;;;;4.2;100.0;102250;;;;
2023/01/27 01:17:00;;;;;;;2.2;2.2;;;;;;;4.2;100.0;102250;;;;
2023/01/27 01:18:00;;;;;;;2.2;2.2;;;;;;;4.2;100.0;102250;;;;
2023/01/27 01:19:00;;;;;;;2.2;2.2;;;;;;;4.2;100.0;102260;;;;
2023/01/27 01:20:00;;;;;;;2.2;2.2;;;;;;;4.2;100.0;102260;;;;
2023/01/27 01:21:00;;;;;;;2.2;2.2;;;;;;;4.1;100.0;102250;;;;
2023/01/27 01:22:00;;;;;;;2.2;2.2;;;;;;;4.1;100.0;102250;;;;
2023/01/27 01:23:00;;;;;;;2.2;2.2;;;;;;;4.2;100.0;102260;;;;
2023/01/27 01:24:00;;;;;;;2.2;2.2;;;;;;;4.2;100.0;102260;;;;
2023/01/27 01:25:00;;;;;;;2.2;2.2;;;;;;;4.3;100.0;102250;;;;
2023/01/27 01:26:00;;;;;;;1.9;1.9;;;;;;;4.3;100.0;102250;;;;
2023/01/27 01:27:00;;;;;;;1.9;1.9;;;;;;;4.2;100.0;102260;;;;
2023/01/27 01:28:00;;;;;;;1.9;1.9;;;;;;;4.2;100.0;102260;;;;
2023/01/27 01:29:00;;;;;;;1.9;1.9;;;;;;;4.0;100.0;102260;;;;
2023/01/27 01:30:00;;;;;;;1.9;1.9;;;;;;;4.0;100.0;102260;;;;
2023/01/27 01:31:05;;;;;;;1.9;1.9;;;;;;;4.1;100.0;102270;;;;
2023/01/27 01:32:00;;;;;;;1.9;1.9;;;;;;;4.1;100.0;102270;;;;
2023/01/27 01:33:00;;;;;;;1.9;1.9;;;;;;;4.1;100.0;102270;;;;
2023/01/27 01:34:00;;;;;;;1.9;1.9;;;;;;;4.1;100.0;102270;;;;
2023/01/27 01:35:00;;;;;;;1.9;1.9;;;;;;;4.1;100.0;102270;;;;
2023/01/27 01:36:04;;;;;;;1.9;1.9;;;;;;;4.1;100.0;102270;;;;
2023/01/27 01:37:00;;;;;;;1.9;1.9;;;;;;;4.2;100.0;102270;;;;
2023/01/27 01:38:00;;;;;;;1.9;1.9;;;;;;;4.2;100.0;102270;;;;
2023/01/27 01:39:00;;;;;;;1.9;1.9;;;;;;;4.3;100.0;102270;;;;
2023/01/27 01:40:00;;;;;;;1.9;1.9;;;;;;;4.3;100.0;102270;;;;
2023/01/27 01:41:00;;;;;;;1.9;1.9;;;;;;;4.2;100.0;102270;;;;
2023/01/27 01:42:00;;;;;;;1.9;1.9;;;;;;;4.2;100.0;102270;;;;
2023/01/27 01:43:02;;;;;;;1.9;1.9;;;;;;;4.3;100.0;102270;;;;
2023/01/27 01:44:10;;;;;;;1.9;1.9;;;;;;;4.3;100.0;102270;;;;
2023/01/27 01:45:10;;;;;;;1.9;1.9;;;;;;;4.2;100.0;102270;;;;
2023/01/27 01:46:00;;;;;;;2.0;2.0;;;;;;;4.2;100.0;102270;;;;
2023/01/27 01:47:00;;;;;;;2.0;2.0;;;;;;;4.1;100.0;102270;;;;
2023/01/27 01:48:05;;;;;;;2.0;2.0;;;;;;;4.1;100.0;102270;;;;
2023/01/27 01:49:02;;;;;;;2.0;2.0;;;;;;;4.1;100.0;102270;;;;
2023/01/27 01:50:00;;;;;;;2.0;2.0;;;;;;;4.1;100.0;102270;;;;
2023/01/27 01:51:10;;;;;;;2.0;2.0;;;;;;;4.0;100.0;102280;;;;
2023/01/27 01:52:02;;;;;;;2.0;2.0;;;;;;;4.0;100.0;102280;;;;
2023/01/27 01:53:01;;;;;;;2.0;2.0;;;;;;;4.0;100.0;102280;;;;
2023/01/27 01:54:00;;;;;;;2.0;2.0;;;;;;;4.0;100.0;102280;;;;
2023/01/27 01:55:00;;;;;;;2.0;2.0;;;;;;;4.0;100.0;102280;;;;
2023/01/27 01:56:04;;;;;;;2.0;2.0;;;;;;;4.0;100.0;102280;;;;
2023/01/27 01:57:04;;;;;;;2.0;2.0;;;;;;;4.1;100.0;102280;;;;
2023/01/27 01:58:00;;;;;;;2.0;2.0;;;;;;;4.1;100.0;102280;;;;
2023/01/27 01:59:04;;;;;;;2.0;2.0;;;;;;;4.1;100.0;102270;;;;
2023/01/27 02:00:01;;;;;;;2.0;2.0;;;;;;;4.1;100.0;102270;;;;
2023/01/27 02:01:01;;;;;;;2.0;2.0;;;;;;;4.0;100.0;102270;;;;
2023/01/27 02:02:04;;;;;;;2.0;2.0;;;;;;;4.0;100.0;102270;;;;
2023/01/27 02:03:01;;;;;;;2.0;2.0;;;;;;;3.9;100.0;102270;;;;
2023/01/27 02:04:03;;;;;;;2.0;2.0;;;;;;;3.9;100.0;102270;;;;
2023/01/27 02:05:00;;;;;;;2.0;2.0;;;;;;;4.0;100.0;102270;;;;
2023/01/27 02:06:00;;;;;;;2.6;2.5;;;;;;;4.0;100.0;102270;;;;
2023/01/27 02:07:04;;;;;;;2.6;2.5;;;;;;;4.1;100.0;102270;;;;
2023/01/27 02:08:10;;;;;;;2.6;2.5;;;;;;;4.1;100.0;102270;;;;
2023/01/27 02:09:00;;;;;;;2.6;2.5;;;;;;;4.0;100.0;102270;;;;
2023/01/27 02:10:00;;;;;;;2.6;2.5;;;;;;;4.0;100.0;102270;;;;
2023/01/27 02:11:00;;;;;;;2.6;2.5;;;;;;;4.0;100.0;102280;;;;
2023/01/27 02:12:00;;;;;;;2.6;2.5;;;;;;;4.0;100.0;102280;;;;
2023/01/27 02:13:00;;;;;;;2.6;2.5;;;;;;;4.1;100.0;102270;;;;
2023/01/27 02:14:01;;;;;;;2.6;2.5;;;;;;;4.1;100.0;102270;;;;
2023/01/27 02:15:00;;;;;;;2.6;2.5;;;;;;;4.0;100.0;102270;;;;
2023/01/27 02:16:01;;;;;;;2.6;2.5;;;;;;;4.0;100.0;102270;;;;
2023/01/27 02:17:01;;;;;;;2.6;2.5;;;;;;;3.9;100.0;102280;;;;
2023/01/27 02:18:00;;;;;;;2.6;2.5;;;;;;;3.9;100.0;102280;;;;
2023/01/27 02:19:00;;;;;;;2.6;2.5;;;;;;;3.9;100.0;102270;;;;
2023/01/27 02:20:10;;;;;;;2.6;2.5;;;;;;;3.9;100.0;102270;;;;
2023/01/27 02:21:00;;;;;;;2.6;2.5;;;;;;;3.9;100.0;102270;;;;
2023/01/27 02:22:02;;;;;;;2.6;2.5;;;;;;;3.9;100.0;102270;;;;
2023/01/27 02:23:06;;;;;;;2.6;2.5;;;;;;;3.7;100.0;102280;;;;
2023/01/27 02:24:09;;;;;;;2.6;2.5;;;;;;;3.7;100.0;102280;;;;
2023/01/27 02:25:05;;;;;;;2.6;2.5;;;;;;;3.6;100.0;102270;;;;
2023/01/27 02:26:01;;;;;;;2.3;2.3;;;;;;;3.6;100.0;102270;;;;
2023/01/27 02:27:00;;;;;;;2.3;2.3;;;;;;;3.7;100.0;102280;;;;
2023/01/27 02:28:00;;;;;;;2.3;2.3;;;;;;;3.7;100.0;102280;;;;
2023/01/27 02:29:04;;;;;;;2.3;2.3;;;;;;;3.9;100.0;102290;;;;
2023/01/27 02:30:00;;;;;;;2.3;2.3;;;;;;;3.9;100.0;102290;;;;
2023/01/27 02:31:01;;;;;;;2.3;2.3;;;;;;;3.8;100.0;102290;;;;
2023/01/27 02:32:00;;;;;;;2.3;2.3;;;;;;;3.8;100.0;102290;;;;
2023/01/27 02:33:00;;;;;;;2.3;2.3;;;;;;;3.8;100.0;102290;;;;
2023/01/27 02:34:10;;;;;;;2.3;2.3;;;;;;;3.8;100.0;102290;;;;
2023/01/27 02:35:00;;;;;;;2.3;2.3;;;;;;;3.8;100.0;102290;;;;
2023/01/27 02:36:05;;;;;;;2.3;2.3;;;;;;;3.8;100.0;102290;;;;
2023/01/27 02:37:04;;;;;;;2.3;2.3;;;;;;;3.7;100.0;102290;;;;
2023/01/27 02:38:00;;;;;;;2.3;2.3;;;;;;;3.7;100.0;102290;;;;
2023/01/27 02:39:01;;;;;;;2.3;2.3;;;;;;;3.8;100.0;102300;;;;
2023/01/27 02:40:02;;;;;;;2.3;2.3;;;;;;;3.8;100.0;102300;;;;
2023/01/27 02:41:07;;;;;;;2.3;2.3;;;;;;;3.8;100.0;102300;;;;
2023/01/27 02:42:03;;;;;;;2.3;2.3;;;;;;;3.8;100.0;102300;;;;
2023/01/27 02:43:03;;;;;;;2.3;2.3;;;;;;;3.8;100.0;102300;;;;
2023/01/27 02:44:00;;;;;;;2.3;2.3;;;;;;;3.8;100.0;102300;;;;
2023/01/27 02:45:00;;;;;;;2.3;2.3;;;;;;;4.0;100.0;102300;;;;
2023/01/27 02:46:00;;;;;;;2.1;2.1;;;;;;;4.0;100.0;102300;;;;
2023/01/27 02:47:00;;;;;;;2.1;2.1;;;;;;;3.8;100.0;102300;;;;
2023/01/27 02:48:00;;;;;;;2.1;2.1;;;;;;;3.8;100.0;102300;;;;
2023/01/27 02:49:00;;;;;;;2.1;2.1;;;;;;;3.7;100.0;102300;;;;
2023/01/27 02:50:00;;;;;;;2.1;2.1;;;;;;;3.7;100.0;102300;;;;
2023/01/27 02:51:00;;;;;;;2.1;2.1;;;;;;;3.7;100.0;102300;;;;
2023/01/27 02:52:00;;;;;;;2.1;2.1;;;;;;;3.7;100.0;102300;;;;
2023/01/27 02:53:00;;;;;;;2.1;2.1;;;;;;;3.7;100.0;102290;;;;
2023/01/27 02:54:00;;;;;;;2.1;2.1;;;;;;;3.7;100.0;102290;;;;
2023/01/27 02:55:00;;;;;;;2.1;2.1;;;;;;;3.6;100.0;102300;;;;
2023/01/27 02:56:00;;;;;;;2.1;2.1;;;;;;;3.6;100.0;102300;;;;
2023/01/27 02:57:00;;;;;;;2.1;2.1;;;;;;;3.6;100.0;102300;;;;
2023/01/27 02:58:00;;;;;;;2.1;2.1;;;;;;;3.6;100.0;102300;;;;
2023/01/27 02:59:00;;;;;;;2.1;2.1;;;;;;;3.5;100.0;102300;;;;
2023/01/27 03:00:00;;;;;;;2.1;2.1;;;;;;;3.5;100.0;102300;;;;
2023/01/27 03:01:00;;;;;;;2.1;2.1;;;;;;;3.4;100.0;102290;;;;
2023/01/27 03:02:00;;;;;;;2.1;2.1;;;;;;;3.4;100.0;102290;;;;
2023/01/27 03:03:00;;;;;;;2.1;2.1;;;;;;;3.4;100.0;102290;;;;
2023/01/27 03:04:01;;;;;;;2.1;2.1;;;;;;;3.4;100.0;102290;;;;
2023/01/27 03:05:00;;;;;;;2.1;2.1;;;;;;;3.4;100.0;102300;;;;
2023/01/27 03:06:00;;;;;;;2.4;2.4;;;;;;;3.4;100.0;102300;;;;
2023/01/27 03:07:00;;;;;;;2.4;2.4;;;;;;;3.4;100.0;102290;;;;
2023/01/27 03:08:00;;;;;;;2.4;2.4;;;;;;;3.4;100.0;102290;;;;
2023/01/27 03:09:00;;;;;;;2.4;2.4;;;;;;;3.4;100.0;102290;;;;
2023/01/27 03:10:00;;;;;;;2.4;2.4;;;;;;;3.4;100.0;102290;;;;
2023/01/27 03:11:00;;;;;;;2.4;2.4;;;;;;;3.5;100.0;102290;;;;
2023/01/27 03:13:00;;;;;;;2.4;2.4;;;;;;;3.5;100.0;102300;;;;
2023/01/27 03:14:00;;;;;;;2.4;2.4;;;;;;;3.5;100.0;102300;;;;
2023/01/27 03:18:12;;;;;;;2.4;2.4;;;;;;;3.6;100.0;102300;;;;
2023/01/27 03:19:00;;;;;;;2.4;2.4;;;;;;;3.6;100.0;102300;;;;
2023/01/27 03:20:00;;;;;;;2.4;2.4;;;;;;;3.6;100.0;102300;;;;
2023/01/27 03:21:01;;;;;;;2.4;2.4;;;;;;;3.7;100.0;102310;;;;
2023/01/27 03:22:00;;;;;;;2.4;2.4;;;;;;;3.7;100.0;102310;;;;
2023/01/27 03:23:01;;;;;;;2.4;2.4;;;;;;;3.7;100.0;102310;;;;
2023/01/27 03:24:00;;;;;;;2.4;2.4;;;;;;;3.7;100.0;102310;;;;
2023/01/27 03:25:00;;;;;;;2.4;2.4;;;;;;;3.6;100.0;102310;;;;
2023/01/27 03:26:01;;;;;;;2.4;2.4;;;;;;;3.6;100.0;102310;;;;
2023/01/27 03:27:00;;;;;;;2.4;2.4;;;;;;;3.6;100.0;102300;;;;
2023/01/27 03:28:00;;;;;;;2.4;2.4;;;;;;;3.6;100.0;102300;;;;
2023/01/27 03:30:00;;;;;;;2.4;2.4;;;;;;;3.7;100.0;102310;;;;
2023/01/27 03:31:02;;;;;;;2.4;2.4;;;;;;;3.6;100.0;102310;;;;
2023/01/27 03:32:00;;;;;;;2.4;2.4;;;;;;;3.6;100.0;102310;;;;
2023/01/27 03:33:02;;;;;;;2.4;2.4;;;;;;;3.6;100.0;102310;;;;
2023/01/27 03:34:00;;;;;;;2.4;2.4;;;;;;;3.6;100.0;102310;;;;
2023/01/27 03:35:01;;;;;;;2.4;2.4;;;;;;;3.7;100.0;102310;;;;
2023/01/27 03:47:00;;;;;;;2.8;2.7;;;;;;;3.5;100.0;102330;;;;
2023/01/27 03:48:00;;;;;;;2.8;2.7;;;;;;;3.5;100.0;102330;;;;
2023/01/27 03:49:00;;;;;;;2.8;2.7;;;;;;;3.5;100.0;102330;;;;
2023/01/27 03:50:00;;;;;;;2.8;2.7;;;;;;;3.5;100.0;102330;;;;
2023/01/27 03:51:01;;;;;;;2.8;2.7;;;;;;;3.5;100.0;102330;;;;
2023/01/27 03:52:00;;;;;;;2.8;2.7;;;;;;;3.5;100.0;102330;;;;
2023/01/27 03:53:03;;;;;;;2.8;2.7;;;;;;;3.4;100.0;102340;;;;
2023/01/27 03:54:00;;;;;;;2.8;2.7;;;;;;;3.4;100.0;102340;;;;
2023/01/27 03:55:00;;;;;;;2.8;2.7;;;;;;;3.4;100.0;102330;;;;
2023/01/27 03:56:00;;;;;;;2.8;2.7;;;;;;;3.4;100.0;102330;;;;
2023/01/27 03:57:04;;;;;;;2.8;2.7;;;;;;;3.4;100.0;102350;;;;
2023/01/27 03:58:13;;;;;;;2.8;2.7;;;;;;;3.4;100.0;102350;;;;
2023/01/27 03:59:00;;;;;;;2.8;2.7;;;;;;;3.4;100.0;102330;;;;
2023/01/27 04:00:00;;;;;;;2.8;2.7;;;;;;;3.4;100.0;102330;;;;
2023/01/27 04:01:10;;;;;;;2.8;2.7;;;;;;;3.4;100.0;102340;;;;
2023/01/27 04:07:01;;;;;;;2.3;2.3;;;;;;;3.4;100.0;102340;;;;
2023/01/27 04:08:00;;;;;;;2.3;2.3;;;;;;;3.4;100.0;102340;;;;
2023/01/27 04:09:01;;;;;;;2.3;2.3;;;;;;;3.4;100.0;102340;;;;
2023/01/27 04:10:00;;;;;;;2.3;2.3;;;;;;;3.4;100.0;102340;;;;
2023/01/27 04:12:01;;;;;;;2.3;2.3;;;;;;;3.5;100.0;102340;;;;
2023/01/27 04:13:00;;;;;;;2.3;2.3;;;;;;;3.5;100.0;102340;;;;
2023/01/27 04:14:01;;;;;;;2.3;2.3;;;;;;;3.5;100.0;102340;;;;
2023/01/27 04:15:00;;;;;;;2.3;2.3;;;;;;;3.5;100.0;102340;;;;
2023/01/27 04:16:00;;;;;;;2.3;2.3;;;;;;;3.5;100.0;102340;;;;
2023/01/27 04:17:03;;;;;;;2.3;2.3;;;;;;;3.6;100.0;102340;;;;
2023/01/27 04:18:00;;;;;;;2.3;2.3;;;;;;;3.6;100.0;102340;;;;
2023/01/27 04:19:00;;;;;;;2.3;2.3;;;;;;;3.5;100.0;102330;;;;
2023/01/27 04:20:00;;;;;;;2.3;2.3;;;;;;;3.5;100.0;102330;;;;
2023/01/27 04:21:00;;;;;;;2.3;2.3;;;;;;;3.4;100.0;102330;;;;
2023/01/27 04:22:00;;;;;;;2.3;2.3;;;;;;;3.4;100.0;102330;;;;
2023/01/27 04:23:00;;;;;;;2.3;2.3;;;;;;;3.3;100.0;102330;;;;
2023/01/27 04:24:00;;;;;;;2.3;2.3;;;;;;;3.3;100.0;102330;;;;
2023/01/27 04:25:00;;;;;;;2.4;2.4;;;;;;;3.4;100.0;102330;;;;
2023/01/27 04:26:00;;;;;;;2.4;2.4;;;;;;;3.4;100.0;102330;;;;
2023/01/27 04:27:02;;;;;;;2.4;2.4;;;;;;;3.5;100.0;102330;;;;
2023/01/27 04:28:00;;;;;;;2.4;2.4;;;;;;;3.5;100.0;102330;;;;
2023/01/27 04:29:01;;;;;;;2.4;2.4;;;;;;;3.5;100.0;102340;;;;
2023/01/27 04:30:00;;;;;;;2.4;2.4;;;;;;;3.5;100.0;102340;;;;
2023/01/27 04:31:00;;;;;;;2.4;2.4;;;;;;;3.5;100.0;102340;;;;
2023/01/27 04:32:02;;;;;;;2.4;2.4;;;;;;;3.5;100.0;102340;;;;
2023/01/27 04:33:03;;;;;;;2.4;2.4;;;;;;;3.6;100.0;102340;;;;
2023/01/27 04:34:00;;;;;;;2.4;2.4;;;;;;;3.6;100.0;102340;;;;
2023/01/27 04:35:00;;;;;;;2.4;2.4;;;;;;;3.4;100.0;102330;;;;
2023/01/27 04:36:00;;;;;;;2.4;2.4;;;;;;;3.4;100.0;102330;;;;
2023/01/27 04:37:02;;;;;;;2.4;2.4;;;;;;;3.4;100.0;102340;;;;
2023/01/27 04:38:00;;;;;;;2.4;2.4;;;;;;;3.4;100.0;102340;;;;
2023/01/27 04:39:00;;;;;;;2.4;2.4;;;;;;;3.2;100.0;102330;;;;
2023/01/27 04:40:00;;;;;;;2.4;2.4;;;;;;;3.2;100.0;102330;;;;
2023/01/27 04:41:00;;;;;;;2.4;2.4;;;;;;;3.3;100.0;102340;;;;
2023/01/27 04:42:00;;;;;;;2.4;2.4;;;;;;;3.3;100.0;102340;;;;
2023/01/27 04:43:00;;;;;;;2.4;2.4;;;;;;;3.3;100.0;102330;;;;
2023/01/27 04:44:00;;;;;;;2.4;2.4;;;;;;;3.3;100.0;102330;;;;
2023/01/27 04:45:00;;;;;;;2.7;2.6;;;;;;;3.3;100.0;102330;;;;
2023/01/27 04:46:00;;;;;;;2.7;2.6;;;;;;;3.3;100.0;102330;;;;
2023/01/27 04:47:00;;;;;;;2.7;2.6;;;;;;;3.3;100.0;102350;;;;
2023/01/27 04:48:00;;;;;;;2.7;2.6;;;;;;;3.3;100.0;102350;;;;
2023/01/27 04:49:00;;;;;;;2.7;2.6;;;;;;;3.3;100.0;102340;;;;
2023/01/27 04:50:00;;;;;;;2.7;2.6;;;;;;;3.3;100.0;102340;;;;
2023/01/27 04:51:00;;;;;;;2.7;2.6;;;;;;;3.3;100.0;102350;;;;
2023/01/27 04:52:00;;;;;;;2.7;2.6;;;;;;;3.3;100.0;102350;;;;
2023/01/27 04:53:00;;;;;;;2.7;2.6;;;;;;;3.2;100.0;102350;;;;
2023/01/27 04:54:02;;;;;;;2.7;2.6;;;;;;;3.2;100.0;102350;;;;
2023/01/27 04:55:00;;;;;;;2.7;2.6;;;;;;;3.4;100.0;102350;;;;
2023/01/27 04:56:01;;;;;;;2.7;2.6;;;;;;;3.4;100.0;102350;;;;
2023/01/27 04:57:02;;;;;;;2.7;2.6;;;;;;;3.4;100.0;102350;;;;
2023/01/27 04:58:00;;;;;;;2.7;2.6;;;;;;;3.4;100.0;102350;;;;
2023/01/27 04:59:01;;;;;;;2.7;2.6;;;;;;;3.3;100.0;102350;;;;
2023/01/27 05:00:00;;;;;;;2.7;2.6;;;;;;;3.3;100.0;102350;;;;
2023/01/27 05:01:00;;;;;;;2.7;2.6;;;;;;;3.3;100.0;102360;;;;
2023/01/27 05:02:00;;;;;;;2.7;2.6;;;;;;;3.3;100.0;102360;;;;
2023/01/27 05:03:03;;;;;;;2.7;2.6;;;;;;;3.3;100.0;102350;;;;
2023/01/27 05:04:00;;;;;;;2.7;2.6;;;;;;;3.3;100.0;102350;;;;
2023/01/27 05:05:03;;;;;;;2.4;2.4;;;;;;;3.3;100.0;102350;;;;
2023/01/27 05:06:00;;;;;;;2.4;2.4;;;;;;;3.3;100.0;102350;;;;
2023/01/27 05:07:01;;;;;;;2.4;2.4;;;;;;;3.2;100.0;102350;;;;
2023/01/27 05:08:02;;;;;;;2.4;2.4;;;;;;;3.2;100.0;102350;;;;
2023/01/27 05:09:00;;;;;;;2.4;2.4;;;;;;;3.2;100.0;102350;;;;
2023/01/27 05:10:00;;;;;;;2.4;2.4;;;;;;;3.2;100.0;102350;;;;
2023/01/27 05:11:00;;;;;;;2.4;2.4;;;;;;;3.2;100.0;102350;;;;
2023/01/27 05:12:00;;;;;;;2.4;2.4;;;;;;;3.2;100.0;102350;;;;
2023/01/27 05:13:01;;;;;;;2.4;2.4;;;;;;;3.3;100.0;102350;;;;
2023/01/27 05:14:00;;;;;;;2.4;2.4;;;;;;;3.3;100.0;102350;;;;
2023/01/27 05:15:00;;;;;;;2.4;2.4;;;;;;;3.2;100.0;102350;;;;
2023/01/27 05:16:10;;;;;;;2.4;2.4;;;;;;;3.2;100.0;102350;;;;
2023/01/27 05:17:00;;;;;;;2.4;2.4;;;;;;;3.3;100.0;102360;;;;
2023/01/27 05:18:00;;;;;;;2.4;2.4;;;;;;;3.3;100.0;102360;;;;
2023/01/27 05:19:00;;;;;;;2.4;2.4;;;;;;;3.3;100.0;102350;;;;
2023/01/27 05:20:00;;;;;;;2.4;2.4;;;;;;;3.3;100.0;102350;;;;
2023/01/27 05:21:00;;;;;;;2.4;2.4;;;;;;;3.3;100.0;102360;;;;
2023/01/27 05:22:00;;;;;;;2.4;2.4;;;;;;;3.3;100.0;102360;;;;
2023/01/27 05:24:00;;;;;;;2.4;2.4;;;;;;;3.2;100.0;102350;;;;
2023/01/27 05:25:00;;;;;;;2.3;2.3;;;;;;;3.2;100.0;102350;;;;
2023/01/27 05:26:03;;;;;;;2.3;2.3;;;;;;;3.2;100.0;102350;;;;
2023/01/27 05:27:00;;;;;;;2.3;2.3;;;;;;;3.2;100.0;102370;;;;
2023/01/27 05:28:00;;;;;;;2.3;2.3;;;;;;;3.2;100.0;102370;;;;
2023/01/27 05:29:00;;;;;;;2.3;2.3;;;;;;;3.4;100.0;102360;;;;
2023/01/27 05:30:00;;;;;;;2.3;2.3;;;;;;;3.4;100.0;102360;;;;
2023/01/27 05:31:04;;;;;;;2.3;2.3;;;;;;;3.4;100.0;102370;;;;
2023/01/27 05:32:00;;;;;;;2.3;2.3;;;;;;;3.4;100.0;102370;;;;
2023/01/27 05:33:00;;;;;;;2.3;2.3;;;;;;;3.4;100.0;102370;;;;
2023/01/27 05:34:01;;;;;;;2.3;2.3;;;;;;;3.4;100.0;102370;;;;
2023/01/27 05:35:00;;;;;;;2.3;2.3;;;;;;;3.5;100.0;102370;;;;
2023/01/27 05:36:02;;;;;;;2.3;2.3;;;;;;;3.5;100.0;102370;;;;
2023/01/27 05:37:00;;;;;;;2.3;2.3;;;;;;;3.6;100.0;102380;;;;
2023/01/27 05:38:00;;;;;;;2.3;2.3;;;;;;;3.6;100.0;102380;;;;
2023/01/27 05:39:00;;;;;;;2.3;2.3;;;;;;;3.7;100.0;102370;;;;
2023/01/27 05:40:00;;;;;;;2.3;2.3;;;;;;;3.7;100.0;102370;;;;
2023/01/27 05:41:02;;;;;;;2.3;2.3;;;;;;;3.6;100.0;102380;;;;
2023/01/27 05:42:00;;;;;;;2.3;2.3;;;;;;;3.6;100.0;102380;;;;
2023/01/27 05:43:00;;;;;;;2.3;2.3;;;;;;;3.6;100.0;102370;;;;
2023/01/27 05:44:00;;;;;;;2.3;2.3;;;;;;;3.6;100.0;102370;;;;
2023/01/27 05:45:00;;;;;;;2.3;2.3;;;;;;;3.5;100.0;102380;;;;
2023/01/27 05:46:09;;;;;;;2.3;2.3;;;;;;;3.5;100.0;102380;;;;
2023/01/27 05:47:00;;;;;;;2.3;2.3;;;;;;;3.7;100.0;102380;;;;
2023/01/27 05:48:00;;;;;;;2.3;2.3;;;;;;;3.7;100.0;102380;;;;
2023/01/27 05:49:02;;;;;;;2.3;2.3;;;;;;;3.5;100.0;102380;;;;
2023/01/27 05:50:00;;;;;;;2.3;2.3;;;;;;;3.5;100.0;102380;;;;
2023/01/27 05:51:00;;;;;;;2.3;2.3;;;;;;;3.6;100.0;102380;;;;
2023/01/27 05:52:00;;;;;;;2.3;2.3;;;;;;;3.6;100.0;102380;;;;
2023/01/27 05:53:00;;;;;;;2.3;2.3;;;;;;;3.7;100.0;102380;;;;
2023/01/27 05:54:00;;;;;;;2.3;2.3;;;;;;;3.7;100.0;102380;;;;
2023/01/27 05:55:00;;;;;;;2.3;2.3;;;;;;;3.6;100.0;102380;;;;
2023/01/27 05:56:00;;;;;;;2.3;2.3;;;;;;;3.6;100.0;102380;;;;
2023/01/27 05:57:00;;;;;;;2.3;2.3;;;;;;;3.7;100.0;102380;;;;
2023/01/27 05:58:00;;;;;;;2.3;2.3;;;;;;;3.7;100.0;102380;;;;
2023/01/27 05:59:00;;;;;;;2.3;2.3;;;;;;;3.6;100.0;102390;;;;
2023/01/27 06:00:00;;;;;;;2.3;2.3;;;;;;;3.6;100.0;102390;;;;
2023/01/27 06:01:09;;;;;;;2.3;2.3;;;;;;;3.6;100.0;102390;;;;
2023/01/27 06:02:00;;;;;;;2.3;2.3;;;;;;;3.6;100.0;102390;;;;
2023/01/27 06:03:00;;;;;;;2.3;2.3;;;;;;;3.7;100.0;102390;;;;
2023/01/27 06:04:00;;;;;;;2.3;2.3;;;;;;;3.7;100.0;102390;;;;
2023/01/27 06:05:00;;;;;;;2.3;2.3;;;;;;;3.7;100.0;102390;;;;
2023/01/27 06:06:00;;;;;;;2.3;2.3;;;;;;;3.7;100.0;102390;;;;
2023/01/27 06:07:00;;;;;;;2.3;2.3;;;;;;;3.7;100.0;102390;;;;
2023/01/27 06:08:00;;;;;;;2.3;2.3;;;;;;;3.7;100.0;102390;;;;
2023/01/27 06:09:01;;;;;;;2.3;2.3;;;;;;;3.7;100.0;102390;;;;
2023/01/27 06:10:00;;;;;;;2.3;2.3;;;;;;;3.7;100.0;102390;;;;
2023/01/27 06:11:00;;;;;;;2.3;2.3;;;;;;;3.6;100.0;102390;;;;
2023/01/27 06:12:00;;;;;;;2.3;2.3;;;;;;;3.6;100.0;102390;;;;
2023/01/27 06:13:00;;;;;;;2.3;2.3;;;;;;;3.7;100.0;102400;;;;
2023/01/27 06:14:00;;;;;;;2.3;2.3;;;;;;;3.7;100.0;102400;;;;
2023/01/27 06:15:00;;;;;;;2.3;2.3;;;;;;;3.6;100.0;102400;;;;
2023/01/27 06:16:01;;;;;;;2.3;2.3;;;;;;;3.6;100.0;102400;;;;
2023/01/27 06:17:00;;;;;;;2.3;2.3;;;;;;;3.7;100.0;102400;;;;
2023/01/27 06:18:00;;;;;;;2.3;2.3;;;;;;;3.7;100.0;102400;;;;
2023/01/27 06:19:00;;;;;;;2.3;2.3;;;;;;;3.6;100.0;102400;;;;
2023/01/27 06:20:00;;;;;;;2.3;2.3;;;;;;;3.6;100.0;102400;;;;
2023/01/27 06:21:01;;;;;;;2.3;2.3;;;;;;;3.7;100.0;102400;;;;
2023/01/27 06:22:01;;;;;;;2.3;2.3;;;;;;;3.7;100.0;102400;;;;
2023/01/27 06:23:00;;;;;;;2.3;2.3;;;;;;;3.7;100.0;102400;;;;
2023/01/27 06:24:00;;;;;;;2.3;2.3;;;;;;;3.7;100.0;102400;;;;
2023/01/27 06:25:00;;;;;;;2.0;2.0;;;;;;;3.7;100.0;102400;;;;
2023/01/27 06:26:05;;;;;;;2.0;2.0;;;;;;;3.7;100.0;102400;;;;
2023/01/27 06:27:00;;;;;;;2.0;2.0;;;;;;;3.7;100.0;102400;;;;
2023/01/27 06:28:00;;;;;;;2.0;2.0;;;;;;;3.7;100.0;102400;;;;
2023/01/27 06:29:00;;;;;;;2.0;2.0;;;;;;;3.8;100.0;102400;;;;
2023/01/27 06:30:00;;;;;;;2.0;2.0;;;;;;;3.8;100.0;102400;;;;
2023/01/27 06:31:09;;;;;;;2.0;2.0;;;;;;;3.8;100.0;102400;;;;
2023/01/27 06:32:00;;;;;;;2.0;2.0;;;;;;;3.8;100.0;102400;;;;
2023/01/27 06:33:00;;;;;;;2.0;2.0;;;;;;;3.8;100.0;102400;;;;
2023/01/27 06:34:00;;;;;;;2.0;2.0;;;;;;;3.8;100.0;102400;;;;
2023/01/27 06:35:00;;;;;;;2.0;2.0;;;;;;;3.8;100.0;102400;;;;
2023/01/27 06:36:01;;;;;;;2.0;2.0;;;;;;;3.8;100.0;102400;;;;
2023/01/27 06:37:00;;;;;;;2.0;2.0;;;;;;;3.8;100.0;102400;;;;
2023/01/27 06:41:01;;;;;;;2.0;2.0;;;;;;;3.9;100.0;102400;;;;
2023/01/27 06:42:00;;;;;;;2.0;2.0;;;;;;;3.9;100.0;102400;;;;
2023/01/27 06:43:00;;;;;;;2.0;2.0;;;;;;;3.9;100.0;102400;;;;
2023/01/27 06:44:00;;;;;;;2.0;2.0;;;;;;;3.9;100.0;102400;;;;
2023/01/27 06:45:00;;;;;;;2.2;2.2;;;;;;;4.0;100.0;102400;;;;
2023/01/27 06:46:03;;;;;;;2.2;2.2;;;;;;;4.0;100.0;102400;;;;
2023/01/27 06:47:00;;;;;;;2.2;2.2;;;;;;;4.0;100.0;102400;;;;
2023/01/27 06:48:00;;;;;;;2.2;2.2;;;;;;;4.0;100.0;102400;;;;
2023/01/27 06:49:00;;;;;;;2.2;2.2;;;;;;;3.9;100.0;102400;;;;
2023/01/27 06:50:00;;;;;;;2.2;2.2;;;;;;;3.9;100.0;102400;;;;
2023/01/27 06:51:00;;;;;;;2.2;2.2;;;;;;;3.8;100.0;102400;;;;
2023/01/27 06:52:00;;;;;;;2.2;2.2;;;;;;;3.8;100.0;102400;;;;
2023/01/27 06:53:01;;;;;;;2.2;2.2;;;;;;;3.8;100.0;102400;;;;
2023/01/27 06:54:00;;;;;;;2.2;2.2;;;;;;;3.8;100.0;102400;;;;
2023/01/27 06:55:00;;;;;;;2.2;2.2;;;;;;;3.9;100.0;102400;;;;
2023/01/27 06:56:00;;;;;;;2.2;2.2;;;;;;;3.9;100.0;102400;;;;
2023/01/27 06:57:00;;;;;;;2.2;2.2;;;;;;;3.9;100.0;102410;;;;
2023/01/27 06:58:01;;;;;;;2.2;2.2;;;;;;;3.9;100.0;102410;;;;
2023/01/27 06:59:00;;;;;;;2.2;2.2;;;;;;;3.9;100.0;102410;;;;
2023/01/27 07:00:00;;;;;;;2.2;2.2;;;;;;;3.9;100.0;102410;;;;
2023/01/27 07:01:02;;;;;;;2.2;2.2;;;;;;;3.8;100.0;102410;;;;
2023/01/27 07:02:00;;;;;;;2.2;2.2;;;;;;;3.8;100.0;102410;;;;
2023/01/27 07:03:00;;;;;;;2.2;2.2;;;;;;;3.8;100.0;102420;;;;
2023/01/27 07:04:00;;;;;;;2.2;2.2;;;;;;;3.8;100.0;102420;;;;
2023/01/27 07:05:00;;;;;;;1.9;1.9;;;;;;;3.8;100.0;102420;;;;
2023/01/27 07:06:00;;;;;;;1.9;1.9;;;;;;;3.8;100.0;102420;;;;